map of RTB home
RTB - Airport
Location
City:  Roatán, Islas de la Bahía, Honduras
Near (Alt.):Coxen Hole
Name:Juan Manuel Gálvez International Airport
ICAO:MHRO
IATA:RTB

Details
Type:Airport (Aerodrome, Airfield)
Use:Public/Civil, International (customs port of entry)
Latitude:16°19'02"N (16.317287)
Longitude:86°31'20"W (-86.522282)
Elevation:20 ft (6 m)
Variation:1.55°W (WMM2015v2 magnetic declination)
-0.12° annual change
Runways:1
Longest:6857 × 148 ft (2090 × 45 m), paved

Time
Time Zone:UTC-6
Local Time:

Weather
METAR:MHRO 041400Z 09010KT CAVOK 26/22 Q1013 A2992 NOSIG

Related Locations
Nearby:
Farthest:CCK: 12075 mi / 19432 km
West Island (Pulau Panjang) [Cocos (Keeling) Islands], CC

Find:

   beyond  
but within

Other Information
Maps:
NOTAMs:
Links:
Sources:

  
  • flag of Honduras
  

Airport Diagram

Airport diagram for RTB

Airport diagram PDF

Sectional Chart

Flight Planning
at skyvector.com

Satellite Image

Google Maps Satellite view

 

Copyright © 2004-2019 Karl L. Swartz. All rights reserved.
The Great Circle Mapper name and logo are trademarks of the Great Circle Mapper.
All other trademarks mentioned herein belong to their respective owners.
Please see credits for attibutions and further copyright information.

  Follow gcmap on Facebook Follow gcmap on Twitter GCmap on LinkedIn

hCard Microformat

Geo Microformat